Terminal Aerodrome Forecast
Issued by NWS

Home | Current Version | Previous Version | Graphics & Text | Print | Product List | Glossary On
Versions: 1 2 3 4 5 6 7 8 9 10 11 12 13 14
000
FTUS41 KCLE 221200 AAA
TAFFDY
TAF AMD
KFDY 221249Z 2213/2312 23014G22KT P6SM BKN014 BKN070
     FM221600 27020G30KT P6SM BKN025 OVC040
     FM230200 27012KT P6SM OVC025=

USA.gov is the U.S. government's official web portal to all federal, state and local government web resources and services.